Time;durP1;ratioP1;P1;durP2;ratioP2;P2;SDS_P1;SDS_P2;PMS_P1;PMS_P2;Temp;Humidity;BMP_temperature;BMP_pressure;BME280_temperature;BME280_humidity;BME280_pressure;Samples;Min_cycle;Max_cycle;Signal;HPM_P1;HPM_P2
2021/04/09 00:00:27;;;;;;;8.23;4.87;;;5.00;86.40;;;;;;1706036;84;21145;-72
2021/04/09 00:02:57;;;;;;;9.18;5.12;;;4.90;86.20;;;;;;1705626;84;21098;-73
2021/04/09 00:05:26;;;;;;;9.60;4.60;;;5.00;85.90;;;;;;1706136;84;21091;-73
2021/04/09 00:07:57;;;;;;;8.88;5.40;;;5.20;86.60;;;;;;1706473;84;21211;-72
2021/04/09 00:10:28;;;;;;;8.63;4.75;;;5.20;85.10;;;;;;1707724;84;21592;-73
2021/04/09 00:12:56;;;;;;;8.70;4.55;;;5.20;84.90;;;;;;1709190;84;21095;-72
2021/04/09 00:15:25;;;;;;;8.00;4.85;;;5.20;85.10;;;;;;1707378;84;21166;-73
2021/04/09 00:17:53;;;;;;;11.10;5.53;;;5.20;85.90;;;;;;1706117;84;21135;-75
2021/04/09 00:20:24;;;;;;;10.03;5.08;;;5.20;85.10;;;;;;1696640;84;21180;-73
2021/04/09 00:22:53;;;;;;;10.98;5.40;;;5.20;87.10;;;;;;1680894;85;21148;-74
2021/04/09 00:25:23;;;;;;;9.20;5.33;;;5.40;84.50;;;;;;1677448;85;21176;-74
2021/04/09 00:27:51;;;;;;;7.40;4.58;;;5.50;83.30;;;;;;1681252;85;21157;-74
2021/04/09 00:30:24;;;;;;;15.13;8.00;;;5.60;83.70;;;;;;1680732;85;21209;-74
2021/04/09 00:32:52;;;;;;;13.22;7.22;;;5.70;82.40;;;;;;1683087;85;21181;-75
2021/04/09 00:35:22;;;;;;;9.38;5.30;;;5.70;82.30;;;;;;1680902;85;21306;-75
2021/04/09 00:37:52;;;;;;;13.35;7.20;;;5.60;81.60;;;;;;1680152;85;21705;-76
2021/04/09 00:40:21;;;;;;;10.93;7.17;;;5.70;81.70;;;;;;1679486;85;21608;-75
2021/04/09 00:42:49;;;;;;;15.93;7.65;;;5.80;80.90;;;;;;1679496;85;21141;-75
2021/04/09 00:45:18;;;;;;;13.20;6.58;;;5.70;81.00;;;;;;1679629;85;21178;-75
2021/04/09 00:47:46;;;;;;;13.43;6.37;;;5.80;81.20;;;;;;1679507;85;21173;-75
2021/04/09 00:50:15;;;;;;;13.00;6.90;;;5.70;80.90;;;;;;1679701;85;21180;-75
2021/04/09 00:52:45;;;;;;;14.05;6.80;;;5.70;80.80;;;;;;1679602;85;21149;-75
2021/04/09 00:55:16;;;;;;;10.50;6.10;;;5.80;80.80;;;;;;1679586;85;21205;-74
2021/04/09 00:57:45;;;;;;;10.90;5.95;;;5.80;80.90;;;;;;1679545;85;21169;-75
2021/04/09 01:00:14;;;;;;;10.25;5.65;;;5.80;80.50;;;;;;1679550;85;21160;-75
2021/04/09 01:02:43;;;;;;;9.18;5.60;;;5.80;81.20;;;;;;1679978;85;21205;-74
2021/04/09 01:05:14;;;;;;;11.68;6.33;;;5.70;80.40;;;;;;1679628;85;21176;-74
2021/04/09 01:07:43;;;;;;;11.00;6.78;;;5.60;80.90;;;;;;1679582;85;21198;-74
2021/04/09 01:10:14;;;;;;;12.53;6.72;;;5.60;81.20;;;;;;1679591;85;21611;-76
2021/04/09 01:12:44;;;;;;;11.10;5.90;;;5.60;80.70;;;;;;1679916;85;21149;-75
2021/04/09 01:15:14;;;;;;;11.12;6.65;;;5.60;81.00;;;;;;1679611;85;21205;-76
2021/04/09 01:18:04;;;;;;;10.95;6.72;;;5.70;81.60;;;;;;1679691;85;21193;-75
2021/04/09 01:21:03;;;;;;;12.45;7.17;;;5.80;80.20;;;;;;1679751;84;21604;-74
2021/04/09 01:23:59;;;;;;;9.05;5.95;;;5.80;79.60;;;;;;1660105;85;21145;-73
2021/04/09 01:27:08;;;;;;;11.83;6.60;;;5.90;79.90;;;;;;1678863;85;21291;-74
2021/04/09 01:30:19;;;;;;;12.15;6.25;;;5.90;80.90;;;;;;1679577;85;21612;-74
2021/04/09 01:32:49;;;;;;;11.20;6.70;;;5.90;80.50;;;;;;1679528;85;21330;-75
2021/04/09 01:35:20;;;;;;;11.30;6.53;;;5.90;80.40;;;;;;1679500;85;21305;-75
2021/04/09 01:37:56;;;;;;;9.88;6.05;;;5.90;81.10;;;;;;1679718;85;21624;-74
2021/04/09 01:40:32;;;;;;;10.82;6.17;;;5.90;80.50;;;;;;1679467;85;21323;-74
2021/04/09 01:43:04;;;;;;;10.72;6.25;;;5.90;80.40;;;;;;1682123;85;21599;-74
2021/04/09 01:45:34;;;;;;;11.73;6.58;;;6.00;80.40;;;;;;1684654;85;21157;-76
2021/04/09 01:48:06;;;;;;;12.40;6.67;;;5.90;80.30;;;;;;1684606;85;21217;-75
2021/04/09 01:50:36;;;;;;;10.40;6.45;;;6.00;81.00;;;;;;1684822;85;21189;-75
2021/04/09 01:53:07;;;;;;;10.15;6.30;;;5.90;80.90;;;;;;1684899;85;21181;-74
2021/04/09 01:55:40;;;;;;;11.53;6.70;;;6.00;82.00;;;;;;1684625;85;21142;-74
2021/04/09 01:58:11;;;;;;;9.18;6.08;;;5.90;81.20;;;;;;1684659;85;21150;-75
2021/04/09 02:00:40;;;;;;;9.85;6.30;;;5.60;82.30;;;;;;1684677;85;21133;-75
2021/04/09 02:03:10;;;;;;;12.45;6.28;;;5.50;82.30;;;;;;1684882;85;21155;-73
2021/04/09 02:05:40;;;;;;;11.12;6.62;;;5.40;84.50;;;;;;1684823;85;21592;-73
2021/04/09 02:08:11;;;;;;;11.05;6.35;;;5.50;83.60;;;;;;1684811;85;21172;-72
2021/04/09 02:10:40;;;;;;;10.68;6.20;;;5.50;83.00;;;;;;1684685;85;21597;-73
2021/04/09 02:13:08;;;;;;;11.15;6.10;;;5.60;82.00;;;;;;1684691;85;21177;-72
2021/04/09 02:15:37;;;;;;;11.10;6.05;;;5.60;82.70;;;;;;1684601;85;21160;-73
2021/04/09 02:18:05;;;;;;;10.23;6.30;;;5.70;82.30;;;;;;1684605;85;21169;-72
2021/04/09 02:20:34;;;;;;;11.83;6.85;;;5.70;81.30;;;;;;1685118;84;21180;-72
2021/04/09 02:23:02;;;;;;;12.95;6.83;;;5.80;81.50;;;;;;1691126;85;21561;-73
2021/04/09 02:25:29;;;;;;;11.97;6.70;;;5.80;81.20;;;;;;1691168;85;21143;-73
2021/04/09 02:27:58;;;;;;;14.03;7.12;;;5.90;80.10;;;;;;1690935;85;21753;-73
2021/04/09 02:30:25;;;;;;;11.95;7.22;;;5.80;80.00;;;;;;1691061;85;21151;-74
2021/04/09 02:32:53;;;;;;;12.65;7.53;;;5.90;80.00;;;;;;1691141;85;21590;-74
2021/04/09 02:35:21;;;;;;;12.37;7.28;;;5.90;80.60;;;;;;1691162;85;21155;-74
2021/04/09 02:37:52;;;;;;;14.03;7.35;;;5.80;80.40;;;;;;1691333;85;21147;-74
2021/04/09 02:40:31;;;;;;;13.78;8.03;;;5.70;81.00;;;;;;1691345;85;21135;-74
2021/04/09 02:42:59;;;;;;;12.73;7.08;;;5.70;81.30;;;;;;1690926;85;21692;-74
2021/04/09 02:45:27;;;;;;;12.73;7.45;;;5.60;81.60;;;;;;1691045;85;21285;-74
2021/04/09 02:48:00;;;;;;;12.37;7.35;;;5.70;81.50;;;;;;1691182;85;21586;-73
2021/04/09 02:50:33;;;;;;;12.98;7.25;;;5.50;82.10;;;;;;1691009;85;21135;-72
2021/04/09 02:53:08;;;;;;;12.90;7.50;;;5.50;83.10;;;;;;1691057;85;21265;-75
2021/04/09 02:55:43;;;;;;;13.90;8.13;;;5.50;83.40;;;;;;1691116;85;21277;-73
2021/04/09 02:58:15;;;;;;;14.95;8.05;;;5.50;84.00;;;;;;1691422;85;21111;-75
2021/04/09 03:00:47;;;;;;;13.75;8.50;;;5.50;82.80;;;;;;1691049;85;21258;-74
2021/04/09 03:03:19;;;;;;;15.93;8.78;;;5.40;83.60;;;;;;1691046;85;21290;-75
2021/04/09 03:05:53;;;;;;;13.40;7.58;;;5.30;83.60;;;;;;1690930;85;21270;-74
2021/04/09 03:08:22;;;;;;;12.53;7.40;;;5.30;83.70;;;;;;1690987;85;21309;-74
2021/04/09 03:10:50;;;;;;;10.78;6.78;;;5.30;84.40;;;;;;1691149;85;21293;-75
2021/04/09 03:13:17;;;;;;;13.32;7.95;;;5.30;86.00;;;;;;1691088;85;21590;-74
2021/04/09 03:15:53;;;;;;;13.98;7.55;;;5.20;85.20;;;;;;1691127;85;21278;-74
2021/04/09 03:18:23;;;;;;;12.28;6.70;;;5.10;84.60;;;;;;1691109;85;21607;-74
2021/04/09 03:20:54;;;;;;;12.07;7.12;;;5.10;85.40;;;;;;1691020;84;21477;-75
2021/04/09 03:23:22;;;;;;;12.95;7.05;;;5.10;86.00;;;;;;1691011;85;21258;-74
2021/04/09 03:25:50;;;;;;;12.07;7.20;;;5.10;85.90;;;;;;1691200;85;21143;-74
2021/04/09 03:28:19;;;;;;;13.35;6.95;;;5.00;85.80;;;;;;1691253;85;21156;-74
2021/04/09 03:30:49;;;;;;;12.47;7.28;;;5.10;85.30;;;;;;1689458;85;21573;-74
2021/04/09 03:33:22;;;;;;;11.00;7.05;;;5.10;85.30;;;;;;1663175;86;21767;-74
2021/04/09 03:35:51;;;;;;;13.32;7.33;;;5.10;85.50;;;;;;1666058;85;21146;-75
2021/04/09 03:38:20;;;;;;;13.83;8.15;;;5.10;85.20;;;;;;1685413;85;21612;-75
2021/04/09 03:40:48;;;;;;;12.55;7.28;;;5.00;85.40;;;;;;1687040;85;21119;-75
2021/04/09 03:43:17;;;;;;;11.63;7.05;;;5.00;86.30;;;;;;1691137;85;21582;-75
2021/04/09 03:45:44;;;;;;;12.35;7.70;;;4.90;85.90;;;;;;1689690;85;21557;-75
2021/04/09 03:48:12;;;;;;;11.15;7.33;;;4.70;86.20;;;;;;1685435;85;21178;-75
2021/04/09 03:50:40;;;;;;;11.35;6.80;;;4.70;87.90;;;;;;1686907;85;21518;-76
2021/04/09 03:53:08;;;;;;;11.57;6.78;;;4.60;87.20;;;;;;1691445;85;21119;-75
2021/04/09 03:55:35;;;;;;;11.60;6.85;;;4.60;87.80;;;;;;1689951;85;21273;-73
2021/04/09 03:58:03;;;;;;;12.28;6.62;;;4.50;88.50;;;;;;1685408;85;21166;-74
2021/04/09 04:00:31;;;;;;;12.93;6.92;;;4.60;88.80;;;;;;1686274;85;21457;-75
2021/04/09 04:02:59;;;;;;;10.43;6.30;;;4.60;88.20;;;;;;1691657;85;21163;-74
2021/04/09 04:05:26;;;;;;;12.80;7.50;;;4.40;88.70;;;;;;1690296;85;21617;-75
2021/04/09 04:07:54;;;;;;;11.48;6.95;;;4.50;89.30;;;;;;1685417;85;21206;-75
2021/04/09 04:10:22;;;;;;;11.33;7.00;;;4.50;89.20;;;;;;1686838;85;21136;-74
2021/04/09 04:12:51;;;;;;;12.00;7.10;;;4.50;89.20;;;;;;1689453;85;21127;-75
2021/04/09 04:15:18;;;;;;;9.83;5.90;;;4.50;89.40;;;;;;1690561;85;21143;-75
2021/04/09 04:17:46;;;;;;;12.05;6.55;;;4.50;89.20;;;;;;1689362;85;21136;-74
2021/04/09 04:20:14;;;;;;;11.33;6.47;;;4.40;88.90;;;;;;1691228;85;21169;-74
2021/04/09 04:22:42;;;;;;;10.75;6.05;;;4.20;90.20;;;;;;1690702;85;21149;-75
2021/04/09 04:25:10;;;;;;;10.55;6.83;;;4.20;90.30;;;;;;1688853;85;21123;-75
2021/04/09 04:27:38;;;;;;;9.60;6.30;;;4.20;90.20;;;;;;1687814;85;21161;-76
2021/04/09 04:30:06;;;;;;;11.68;6.45;;;4.20;90.20;;;;;;1673761;85;21103;-75
2021/04/09 04:32:33;;;;;;;10.98;6.00;;;4.30;90.20;;;;;;1688471;85;21175;-75
2021/04/09 04:35:01;;;;;;;8.88;5.60;;;4.40;90.50;;;;;;1687972;85;21161;-75
2021/04/09 04:37:29;;;;;;;9.20;5.87;;;4.40;89.90;;;;;;1688416;85;21107;-76
2021/04/09 04:39:56;;;;;;;10.08;5.70;;;4.50;89.20;;;;;;1688474;85;21115;-74
2021/04/09 04:42:24;;;;;;;12.07;6.72;;;4.50;89.60;;;;;;1688318;85;21585;-74
2021/04/09 04:44:54;;;;;;;9.78;6.12;;;4.50;89.20;;;;;;1688100;85;21142;-73
2021/04/09 04:47:22;;;;;;;12.03;5.80;;;4.50;89.80;;;;;;1684500;85;21170;-71
2021/04/09 04:49:50;;;;;;;10.30;6.53;;;4.60;90.00;;;;;;1685583;85;21174;-72
2021/04/09 04:52:17;;;;;;;9.78;6.33;;;4.60;89.80;;;;;;1685584;85;21175;-69
2021/04/09 04:54:45;;;;;;;10.28;6.17;;;4.60;89.70;;;;;;1685488;85;21182;-69
2021/04/09 04:57:12;;;;;;;9.28;5.83;;;4.70;89.00;;;;;;1686959;85;21178;-70
2021/04/09 04:59:40;;;;;;;10.32;6.47;;;4.80;87.70;;;;;;1685430;85;21178;-71
2021/04/09 05:02:08;;;;;;;10.78;5.58;;;4.90;87.50;;;;;;1685425;85;21170;-71
2021/04/09 05:04:36;;;;;;;10.50;6.58;;;4.90;87.50;;;;;;1685417;85;21628;-71
2021/04/09 05:07:04;;;;;;;9.90;6.37;;;5.00;87.00;;;;;;1685651;85;21146;-74
2021/04/09 05:09:31;;;;;;;11.28;6.35;;;5.00;87.40;;;;;;1685461;85;21676;-72
2021/04/09 05:11:59;;;;;;;9.18;5.97;;;5.00;86.40;;;;;;1685425;85;21190;-71
2021/04/09 05:14:27;;;;;;;10.75;6.25;;;5.10;86.30;;;;;;1685535;85;21162;-72
2021/04/09 05:16:54;;;;;;;9.78;6.58;;;5.30;84.20;;;;;;1685271;85;21198;-73
2021/04/09 05:19:22;;;;;;;9.80;6.30;;;5.40;83.90;;;;;;1685345;85;21174;-71
2021/04/09 05:21:50;;;;;;;12.10;6.83;;;5.50;82.50;;;;;;1689852;84;21631;-69
2021/04/09 05:24:17;;;;;;;12.90;7.47;;;5.60;82.10;;;;;;1703785;84;21150;-70
2021/04/09 05:26:46;;;;;;;9.78;6.10;;;5.60;82.20;;;;;;1703621;84;21603;-69
2021/04/09 05:29:14;;;;;;;13.13;6.50;;;5.70;81.40;;;;;;1703498;84;21154;-69
2021/04/09 05:31:42;;;;;;;17.62;7.80;;;5.90;80.30;;;;;;1703138;84;21351;-69
2021/04/09 05:34:10;;;;;;;14.43;8.58;;;6.00;80.20;;;;;;1703099;84;21193;-69
2021/04/09 05:36:38;;;;;;;18.17;8.88;;;6.00;80.20;;;;;;1703475;84;21169;-69
2021/04/09 05:39:05;;;;;;;18.27;8.53;;;6.10;79.30;;;;;;1703396;84;21202;-70
2021/04/09 05:41:33;;;;;;;13.88;7.87;;;6.10;79.20;;;;;;1703360;84;21202;-69
2021/04/09 05:44:01;;;;;;;15.55;8.20;;;6.20;78.50;;;;;;1703395;84;21165;-69
2021/04/09 05:46:28;;;;;;;14.28;8.23;;;6.20;78.10;;;;;;1703593;84;21619;-69
2021/04/09 05:48:56;;;;;;;17.80;8.33;;;6.20;77.40;;;;;;1703797;84;21619;-69
2021/04/09 05:51:24;;;;;;;14.58;7.60;;;6.20;77.80;;;;;;1703550;84;21130;-72
2021/04/09 05:53:52;;;;;;;12.85;7.37;;;6.30;78.20;;;;;;1703627;84;21632;-69
2021/04/09 05:56:20;;;;;;;14.93;7.42;;;6.40;77.20;;;;;;1703741;84;21604;-69
2021/04/09 05:58:47;;;;;;;11.53;7.08;;;6.50;76.60;;;;;;1703553;84;21188;-69
2021/04/09 06:01:15;;;;;;;14.63;7.65;;;6.50;76.80;;;;;;1703551;84;21173;-69
2021/04/09 06:03:43;;;;;;;12.25;7.10;;;6.50;76.60;;;;;;1703644;84;21208;-70
2021/04/09 06:06:11;;;;;;;12.05;7.05;;;6.60;76.30;;;;;;1703513;84;21169;-70
2021/04/09 06:08:39;;;;;;;12.28;7.58;;;6.60;76.60;;;;;;1703506;84;21176;-69
2021/04/09 06:11:07;;;;;;;11.75;7.53;;;6.70;76.20;;;;;;1703564;84;21177;-70
2021/04/09 06:13:35;;;;;;;17.10;9.20;;;6.60;76.50;;;;;;1703538;84;21178;-69
2021/04/09 06:16:05;;;;;;;20.43;10.25;;;6.80;76.60;;;;;;1703550;84;21181;-69
2021/04/09 06:18:34;;;;;;;12.78;8.43;;;6.90;76.70;;;;;;1703818;84;21192;-70
2021/04/09 06:21:02;;;;;;;16.10;8.78;;;7.10;76.60;;;;;;1703618;84;21454;-70
2021/04/09 06:23:29;;;;;;;14.90;8.65;;;7.20;74.50;;;;;;1688557;84;21598;-70
2021/04/09 06:25:57;;;;;;;14.53;8.80;;;7.20;72.80;;;;;;1658263;85;21597;-68
2021/04/09 06:28:25;;;;;;;13.13;8.58;;;7.30;72.60;;;;;;1685440;85;21186;-70
2021/04/09 06:30:53;;;;;;;16.12;9.28;;;7.30;72.80;;;;;;1685404;85;21209;-71
2021/04/09 06:33:21;;;;;;;14.23;8.93;;;7.40;71.80;;;;;;1685432;85;21625;-69
2021/04/09 06:35:49;;;;;;;13.58;7.85;;;7.50;71.30;;;;;;1685341;85;21166;-71
2021/04/09 06:38:19;;;;;;;13.20;7.47;;;7.50;72.10;;;;;;1685342;85;21610;-70
2021/04/09 06:40:46;;;;;;;15.80;8.85;;;7.70;69.00;;;;;;1685532;85;21194;-70
2021/04/09 06:43:15;;;;;;;17.07;9.38;;;7.80;69.50;;;;;;1685701;85;21236;-70
2021/04/09 06:45:42;;;;;;;11.55;6.95;;;7.80;68.20;;;;;;1685354;85;21173;-69
2021/04/09 06:48:10;;;;;;;14.40;7.95;;;7.80;68.90;;;;;;1685496;85;21166;-69
2021/04/09 06:50:39;;;;;;;10.32;6.70;;;7.70;68.40;;;;;;1685517;85;21569;-70
2021/04/09 06:53:07;;;;;;;13.95;8.45;;;7.60;67.60;;;;;;1685514;85;21210;-70
2021/04/09 06:55:38;;;;;;;16.87;8.93;;;7.60;69.50;;;;;;1685345;85;21138;-70
2021/04/09 06:58:12;;;;;;;13.93;8.08;;;7.70;68.20;;;;;;1685528;85;21154;-69
2021/04/09 07:00:41;;;;;;;14.00;8.13;;;7.70;69.10;;;;;;1685723;85;21187;-69
2021/04/09 07:03:10;;;;;;;16.45;8.90;;;7.80;69.10;;;;;;1685415;85;21169;-69
2021/04/09 07:05:38;;;;;;;10.28;7.00;;;8.00;66.70;;;;;;1685603;85;21613;-68
2021/04/09 07:08:06;;;;;;;11.95;7.85;;;8.00;65.00;;;;;;1685492;85;21182;-69
2021/04/09 07:10:33;;;;;;;16.23;8.90;;;8.10;65.00;;;;;;1685343;85;21194;-70
2021/04/09 07:13:11;;;;;;;15.03;8.78;;;8.20;64.80;;;;;;1685591;85;21173;-71
2021/04/09 07:15:45;;;;;;;16.52;9.10;;;8.20;64.50;;;;;;1685336;85;21154;-70
2021/04/09 07:18:17;;;;;;;15.90;9.63;;;8.40;64.50;;;;;;1685411;85;21572;-70
2021/04/09 07:20:45;;;;;;;13.60;9.30;;;8.50;63.60;;;;;;1685708;85;21162;-70
2021/04/09 07:23:13;;;;;;;11.38;7.92;;;8.50;62.80;;;;;;1696151;84;21177;-69
2021/04/09 07:25:45;;;;;;;14.03;8.38;;;8.60;62.50;;;;;;1703988;84;21311;-70
2021/04/09 07:28:19;;;;;;;14.55;8.85;;;8.60;62.10;;;;;;1703568;84;21169;-70
2021/04/09 07:30:54;;;;;;;14.18;8.88;;;8.70;62.50;;;;;;1703614;84;21122;-70
2021/04/09 07:33:25;;;;;;;11.97;7.60;;;8.60;62.50;;;;;;1703541;84;21207;-70
2021/04/09 07:35:56;;;;;;;9.13;5.95;;;8.70;62.30;;;;;;1703401;84;21561;-70
2021/04/09 07:38:35;;;;;;;10.20;5.78;;;8.80;61.30;;;;;;1703500;84;21153;-70
2021/04/09 07:41:11;;;;;;;10.80;6.40;;;9.00;59.70;;;;;;1703537;84;21181;-70
2021/04/09 07:43:43;;;;;;;9.78;5.92;;;9.20;59.70;;;;;;1703636;84;21548;-70
2021/04/09 07:46:27;;;;;;;9.45;6.95;;;9.60;58.50;;;;;;1703513;84;21603;-70
2021/04/09 07:49:05;;;;;;;10.68;7.20;;;9.80;58.40;;;;;;1703579;84;21181;-70
2021/04/09 07:51:33;;;;;;;13.25;8.13;;;9.60;57.10;;;;;;1703776;84;21177;-69
2021/04/09 07:54:12;;;;;;;12.03;8.20;;;9.70;58.30;;;;;;1703498;84;21177;-69
2021/04/09 07:56:46;;;;;;;8.83;6.47;;;9.60;57.90;;;;;;1703856;84;21296;-69
2021/04/09 07:59:14;;;;;;;12.53;7.55;;;9.90;57.70;;;;;;1703519;84;21169;-69
2021/04/09 08:01:48;;;;;;;13.90;7.53;;;10.40;57.00;;;;;;1703668;84;21153;-69
2021/04/09 08:04:16;;;;;;;13.28;6.75;;;10.50;55.20;;;;;;1703954;84;21161;-69
2021/04/09 08:06:44;;;;;;;9.65;6.40;;;11.10;53.90;;;;;;1703533;84;21175;-69
2021/04/09 08:09:12;;;;;;;9.70;6.37;;;11.30;52.90;;;;;;1703649;84;21201;-69
2021/04/09 08:11:39;;;;;;;12.45;6.72;;;11.70;51.60;;;;;;1703477;84;21197;-69
2021/04/09 08:14:25;;;;;;;8.65;6.15;;;12.50;50.30;;;;;;1703474;84;21212;-69
2021/04/09 08:16:54;;;;;;;8.83;6.42;;;13.20;48.10;;;;;;1703618;84;21138;-69
2021/04/09 08:19:25;;;;;;;10.40;6.25;;;13.80;45.90;;;;;;1703544;84;21213;-69
2021/04/09 08:21:56;;;;;;;8.80;6.35;;;14.20;45.40;;;;;;1703495;84;21240;-70
2021/04/09 08:24:31;;;;;;;9.63;6.60;;;14.50;43.20;;;;;;1685784;84;21186;-70
2021/04/09 08:26:59;;;;;;;8.58;6.92;;;14.60;42.70;;;;;;1685508;85;21162;-70
2021/04/09 08:29:30;;;;;;;10.25;6.25;;;14.80;43.90;;;;;;1685409;85;21636;-69
2021/04/09 08:32:02;;;;;;;9.48;5.87;;;15.20;41.80;;;;;;1685468;85;21154;-69
2021/04/09 08:34:30;;;;;;;7.72;5.10;;;15.70;41.40;;;;;;1685357;85;21170;-70
2021/04/09 08:36:58;;;;;;;4.65;3.80;;;15.80;39.20;;;;;;1685429;85;21629;-70
2021/04/09 08:39:29;;;;;;;4.65;3.55;;;16.10;36.70;;;;;;1682322;85;21135;-71
2021/04/09 08:41:57;;;;;;;6.00;3.90;;;16.40;36.40;;;;;;1685468;85;21166;-70
2021/04/09 08:44:26;;;;;;;6.58;3.58;;;16.10;35.60;;;;;;1685979;85;21181;-70
2021/04/09 08:46:54;;;;;;;6.30;4.60;;;15.60;35.40;;;;;;1685541;85;21167;-71
2021/04/09 08:49:26;;;;;;;9.00;4.55;;;15.40;37.40;;;;;;1685593;85;21210;-69
2021/04/09 08:52:01;;;;;;;6.30;4.90;;;15.20;38.20;;;;;;1685708;85;21179;-69
2021/04/09 08:54:30;;;;;;;6.55;4.70;;;15.20;39.00;;;;;;1685740;85;21166;-69
2021/04/09 08:57:02;;;;;;;5.55;4.30;;;14.90;39.20;;;;;;1685441;85;21170;-69
2021/04/09 08:59:42;;;;;;;7.50;4.33;;;14.50;39.10;;;;;;1685431;85;21182;-72
2021/04/09 09:02:24;;;;;;;8.08;3.80;;;13.90;39.80;;;;;;1685882;85;21135;-71
2021/04/09 09:05:16;;;;;;;4.45;3.30;;;13.60;39.20;;;;;;1685805;85;21178;-70
2021/04/09 09:07:52;;;;;;;4.67;3.10;;;13.40;38.60;;;;;;1685445;85;21182;-69
2021/04/09 09:10:32;;;;;;;;;;;13.00;39.70;;;;;;1687940;85;21162;-69
2021/04/09 09:13:09;;;;;;;4.67;3.22;;;12.80;40.10;;;;;;1685458;85;20424;-70
2021/04/09 09:15:53;;;;;;;5.10;3.30;;;12.60;40.00;;;;;;1685542;85;21135;-70
2021/04/09 09:18:31;;;;;;;4.78;3.08;;;12.50;40.60;;;;;;1685453;85;21140;-70
2021/04/09 09:21:12;;;;;;;5.87;3.27;;;12.50;41.80;;;;;;1685611;85;21561;-70
2021/04/09 09:23:57;;;;;;;6.08;3.62;;;12.80;40.80;;;;;;1684389;85;21185;-70
2021/04/09 09:26:42;;;;;;;5.70;3.62;;;12.80;41.20;;;;;;1685406;85;21170;-69
2021/04/09 09:29:23;;;;;;;6.67;3.58;;;12.60;41.00;;;;;;1685365;85;21621;-69
2021/04/09 09:32:08;;;;;;;5.75;3.55;;;12.70;41.90;;;;;;1685795;85;21182;-70
2021/04/09 09:34:44;;;;;;;4.95;3.45;;;12.80;42.20;;;;;;1685479;85;21628;-70
2021/04/09 09:37:33;;;;;;;6.53;3.27;;;13.00;42.10;;;;;;1685585;85;21158;-69
2021/04/09 09:40:07;;;;;;;5.37;3.37;;;13.10;41.60;;;;;;1685570;85;21178;-70
2021/04/09 09:42:41;;;;;;;6.40;3.72;;;13.30;41.10;;;;;;1692240;83;21158;-69
2021/04/09 09:45:16;;;;;;;5.67;3.80;;;13.30;40.30;;;;;;1682753;83;21147;-71
2021/04/09 09:47:46;;;;;;;7.37;4.00;;;13.20;39.70;;;;;;1674035;85;21171;-75
2021/04/09 09:50:26;;;;;;;6.30;4.20;;;12.90;40.00;;;;;;1676079;86;21192;-67
2021/04/09 09:53:04;;;;;;;6.78;3.72;;;12.90;40.20;;;;;;1719867;83;21721;-70
2021/04/09 09:55:45;;;;;;;6.22;3.35;;;12.60;41.60;;;;;;1719980;83;21155;-70
2021/04/09 09:58:18;;;;;;;5.87;3.62;;;12.60;41.00;;;;;;1718383;83;21645;-70
2021/04/09 10:00:58;;;;;;;6.40;3.47;;;12.50;40.90;;;;;;1719009;83;21215;-70
2021/04/09 10:03:32;;;;;;;4.92;3.17;;;12.60;41.00;;;;;;1718778;83;21160;-70
2021/04/09 10:06:15;;;;;;;6.15;3.90;;;12.40;40.90;;;;;;1719516;83;21167;-70
2021/04/09 10:08:43;;;;;;;6.08;4.28;;;12.30;41.60;;;;;;1715060;83;21144;-69
2021/04/09 10:11:18;;;;;;;6.35;3.47;;;12.10;41.90;;;;;;1719642;83;21164;-71
2021/04/09 10:13:51;;;;;;;6.75;4.33;;;12.00;41.70;;;;;;1720025;83;21151;-70
2021/04/09 10:16:24;;;;;;;5.03;3.77;;;11.90;42.50;;;;;;1720186;83;21181;-70
2021/04/09 10:18:57;;;;;;;6.22;3.50;;;11.80;42.30;;;;;;1719786;83;21912;-70
2021/04/09 10:21:31;;;;;;;7.08;3.58;;;11.80;42.40;;;;;;1719883;83;21714;-70
2021/04/09 10:24:17;;;;;;;7.83;3.92;;;11.70;41.60;;;;;;1719996;83;21316;-71
2021/04/09 10:26:55;;;;;;;5.70;3.70;;;11.70;42.00;;;;;;1720088;83;21149;-70
2021/04/09 10:29:29;;;;;;;6.37;3.52;;;11.60;42.50;;;;;;1707592;83;21327;-68
2021/04/09 10:31:59;;;;;;;5.62;3.70;;;11.70;42.70;;;;;;1699589;84;21172;-68
2021/04/09 10:34:31;;;;;;;7.53;3.80;;;11.70;43.20;;;;;;1680885;84;21319;-69
2021/04/09 10:37:00;;;;;;;7.42;3.62;;;11.70;43.10;;;;;;1671827;86;21152;-67
2021/04/09 10:39:28;;;;;;;6.03;3.92;;;11.60;43.00;;;;;;1669441;86;21173;-70
2021/04/09 10:42:02;;;;;;;6.95;4.67;;;11.70;42.00;;;;;;1648550;86;21182;-71
2021/04/09 10:44:31;;;;;;;6.08;4.17;;;11.60;42.70;;;;;;1651502;87;21174;-69
2021/04/09 10:47:07;;;;;;;6.15;3.85;;;11.70;41.90;;;;;;1681568;85;21165;-71
2021/04/09 10:49:42;;;;;;;7.27;4.23;;;11.70;41.40;;;;;;1656687;86;21145;-70
2021/04/09 10:52:17;;;;;;;6.42;3.70;;;11.70;41.60;;;;;;1695445;84;21350;-70
2021/04/09 10:54:47;;;;;;;6.12;3.92;;;11.70;40.60;;;;;;1669552;86;21161;-70
2021/04/09 10:57:19;;;;;;;6.92;4.15;;;11.70;41.70;;;;;;1639360;87;21186;-73
2021/04/09 10:59:51;;;;;;;6.12;4.15;;;11.80;41.60;;;;;;1637243;87;21183;-73
2021/04/09 11:02:26;;;;;;;7.15;4.25;;;11.80;41.30;;;;;;1669874;86;21161;-73
2021/04/09 11:05:00;;;;;;;6.25;3.83;;;11.80;41.90;;;;;;1639653;87;21609;-71
2021/04/09 11:07:47;;;;;;;7.45;3.77;;;11.90;41.00;;;;;;1637408;88;21779;-73
2021/04/09 11:10:33;;;;;;;5.62;3.80;;;12.00;40.70;;;;;;1607181;88;21360;-72
2021/04/09 11:13:01;;;;;;;10.30;4.10;;;12.00;41.20;;;;;;1667967;86;21121;-72
2021/04/09 11:15:43;;;;;;;6.00;4.20;;;12.00;40.40;;;;;;1639107;87;21178;-73
2021/04/09 11:18:14;;;;;;;7.58;4.30;;;11.70;40.30;;;;;;1633816;88;21192;-72
2021/04/09 11:20:45;;;;;;;8.38;3.90;;;11.60;40.60;;;;;;1680524;84;21175;-72
2021/04/09 11:23:16;;;;;;;7.30;4.55;;;11.70;41.70;;;;;;1695117;84;21632;-72
2021/04/09 11:25:48;;;;;;;6.65;3.80;;;11.70;41.20;;;;;;1703685;84;21541;-71
2021/04/09 11:28:29;;;;;;;5.92;3.70;;;11.60;41.40;;;;;;1703835;84;21355;-72
2021/04/09 11:31:00;;;;;;;5.92;3.37;;;11.40;41.20;;;;;;1703446;84;21126;-71
2021/04/09 11:33:40;;;;;;;7.30;3.90;;;11.30;42.10;;;;;;1703710;84;21145;-71
2021/04/09 11:36:22;;;;;;;7.85;3.90;;;11.30;42.00;;;;;;1703558;84;21189;-72
2021/04/09 11:39:04;;;;;;;6.28;3.25;;;11.30;41.80;;;;;;1703364;84;21182;-69
2021/04/09 11:41:34;;;;;;;5.12;3.50;;;11.40;42.40;;;;;;1702868;83;21193;-70
2021/04/09 11:44:26;;;;;;;5.95;3.90;;;11.50;41.70;;;;;;1690936;84;21180;-69
2021/04/09 11:47:04;;;;;;;5.53;3.67;;;11.70;42.20;;;;;;1646001;87;21197;-71
2021/04/09 11:49:32;;;;;;;4.62;3.10;;;11.90;42.20;;;;;;1616348;87;21179;-72
2021/04/09 11:52:01;;;;;;;5.55;3.77;;;12.10;40.60;;;;;;1673789;86;21197;-72
2021/04/09 11:54:35;;;;;;;5.42;3.27;;;12.10;40.40;;;;;;1673760;85;21173;-72
2021/04/09 11:57:04;;;;;;;6.50;3.40;;;12.20;42.10;;;;;;1646041;87;21627;-72
2021/04/09 11:59:35;;;;;;;7.00;4.20;;;12.40;42.10;;;;;;1641282;87;21208;-80
2021/04/09 12:02:28;;;;;;;5.15;3.55;;;12.40;39.60;;;;;;1673792;86;21189;-73
2021/04/09 12:04:57;;;;;;;8.38;4.20;;;12.20;39.50;;;;;;1645965;87;21227;-72
2021/04/09 12:07:27;;;;;;;10.88;4.10;;;12.20;40.10;;;;;;1641205;87;21517;-71
2021/04/09 12:09:57;;;;;;;6.58;4.08;;;12.00;39.40;;;;;;1678603;85;21177;-73
2021/04/09 12:12:26;;;;;;;6.65;4.25;;;11.90;41.20;;;;;;1678603;85;21189;-69
2021/04/09 12:14:57;;;;;;;6.58;4.10;;;11.80;40.30;;;;;;1674080;86;21122;-70
2021/04/09 12:17:26;;;;;;;6.33;3.87;;;11.60;41.20;;;;;;1674077;85;21157;-71
2021/04/09 12:19:55;;;;;;;6.72;3.90;;;11.70;42.30;;;;;;1646220;87;21174;-80
2021/04/09 12:22:25;;;;;;;7.35;3.85;;;11.90;41.60;;;;;;1641799;87;21618;-69
2021/04/09 12:24:54;;;;;;;7.20;3.80;;;12.00;40.70;;;;;;1668622;85;21615;-68
2021/04/09 12:27:22;;;;;;;6.53;3.75;;;12.00;41.70;;;;;;1663955;86;21212;-70
2021/04/09 12:29:49;;;;;;;6.90;4.05;;;12.20;41.50;;;;;;1632034;88;21183;-69
2021/04/09 12:32:19;;;;;;;5.78;3.67;;;12.30;40.80;;;;;;1660163;86;21596;-68
2021/04/09 12:34:47;;;;;;;5.67;3.75;;;12.30;40.50;;;;;;1631742;88;21610;-68
2021/04/09 12:37:15;;;;;;;14.50;7.05;;;12.30;40.60;;;;;;1662544;86;21193;-70
2021/04/09 12:39:43;;;;;;;9.90;5.58;;;12.20;41.00;;;;;;1663342;86;21205;-69
2021/04/09 12:42:11;;;;;;;7.00;4.03;;;12.10;40.70;;;;;;1630798;88;21187;-68
2021/04/09 12:44:39;;;;;;;7.20;3.60;;;12.00;40.60;;;;;;1663523;86;21620;-68
2021/04/09 12:47:08;;;;;;;6.80;3.58;;;11.80;41.30;;;;;;1631944;88;21223;-69
2021/04/09 12:49:36;;;;;;;5.53;3.62;;;11.90;41.40;;;;;;1663891;86;21170;-68
2021/04/09 12:52:07;;;;;;;9.43;3.87;;;12.00;41.00;;;;;;1631827;88;21186;-71
2021/04/09 12:54:35;;;;;;;7.33;3.90;;;11.90;40.90;;;;;;1664166;86;21137;-69
2021/04/09 12:57:04;;;;;;;7.67;4.70;;;11.90;40.80;;;;;;1631830;88;21187;-69
2021/04/09 12:59:34;;;;;;;5.20;3.55;;;11.80;41.00;;;;;;1664116;86;21564;-69
2021/04/09 13:02:03;;;;;;;6.45;4.15;;;11.70;41.20;;;;;;1664031;86;21190;-67
2021/04/09 13:04:31;;;;;;;8.50;4.10;;;11.70;41.40;;;;;;1632195;88;21597;-69
2021/04/09 13:07:00;;;;;;;8.95;4.00;;;11.70;41.80;;;;;;1664028;86;21576;-67
2021/04/09 13:09:28;;;;;;;7.12;3.90;;;11.70;41.50;;;;;;1631669;88;21301;-69